sensor_id;sensor_type;location;lat;lon;timestamp;P1;durP1;ratioP1;P2;durP2;ratioP2
39924;SDS011;25592;49.986;11.618;2022-09-09T00:02:24;4.13;;;1.10;;
39924;SDS011;25592;49.986;11.618;2022-09-09T00:11:41;3.00;;;1.15;;
39924;SDS011;25592;49.986;11.618;2022-09-09T00:14:47;4.75;;;1.10;;
39924;SDS011;25592;49.986;11.618;2022-09-09T00:17:51;2.58;;;1.58;;
39924;SDS011;25592;49.986;11.618;2022-09-09T00:23:35;4.18;;;1.00;;
39924;SDS011;25592;49.986;11.618;2022-09-09T00:32:18;4.55;;;0.98;;
39924;SDS011;25592;49.986;11.618;2022-09-09T00:35:12;2.08;;;1.45;;
39924;SDS011;25592;49.986;11.618;2022-09-09T00:38:14;3.35;;;1.10;;
39924;SDS011;25592;49.986;11.618;2022-09-09T00:44:32;4.93;;;0.98;;
39924;SDS011;25592;49.986;11.618;2022-09-09T00:47:27;3.20;;;0.88;;
39924;SDS011;25592;49.986;11.618;2022-09-09T00:50:45;4.03;;;1.10;;
39924;SDS011;25592;49.986;11.618;2022-09-09T00:56:42;2.40;;;1.00;;
39924;SDS011;25592;49.986;11.618;2022-09-09T01:02:36;1.63;;;1.02;;
39924;SDS011;25592;49.986;11.618;2022-09-09T01:11:36;6.28;;;1.98;;
39924;SDS011;25592;49.986;11.618;2022-09-09T01:14:48;1.65;;;0.90;;
39924;SDS011;25592;49.986;11.618;2022-09-09T01:17:46;5.38;;;1.15;;
39924;SDS011;25592;49.986;11.618;2022-09-09T01:20:53;4.15;;;1.17;;
39924;SDS011;25592;49.986;11.618;2022-09-09T01:26:58;1.63;;;1.15;;
39924;SDS011;25592;49.986;11.618;2022-09-09T01:29:45;2.00;;;0.90;;
39924;SDS011;25592;49.986;11.618;2022-09-09T01:38:22;2.83;;;1.10;;
39924;SDS011;25592;49.986;11.618;2022-09-09T01:41:09;2.60;;;0.95;;
39924;SDS011;25592;49.986;11.618;2022-09-09T01:43:54;3.72;;;1.00;;
39924;SDS011;25592;49.986;11.618;2022-09-09T01:46:41;4.47;;;1.20;;
39924;SDS011;25592;49.986;11.618;2022-09-09T01:49:26;3.80;;;1.20;;
39924;SDS011;25592;49.986;11.618;2022-09-09T01:52:12;5.50;;;1.05;;
39924;SDS011;25592;49.986;11.618;2022-09-09T01:54:57;4.00;;;1.15;;
39924;SDS011;25592;49.986;11.618;2022-09-09T02:00:31;1.90;;;0.95;;
39924;SDS011;25592;49.986;11.618;2022-09-09T02:03:25;1.77;;;0.90;;
39924;SDS011;25592;49.986;11.618;2022-09-09T02:06:23;5.43;;;1.30;;
39924;SDS011;25592;49.986;11.618;2022-09-09T02:09:21;1.45;;;0.85;;
39924;SDS011;25592;49.986;11.618;2022-09-09T02:12:11;4.95;;;1.30;;
39924;SDS011;25592;49.986;11.618;2022-09-09T02:15:07;3.63;;;1.05;;
39924;SDS011;25592;49.986;11.618;2022-09-09T02:18:02;1.90;;;1.00;;
39924;SDS011;25592;49.986;11.618;2022-09-09T02:20:53;2.63;;;0.80;;
39924;SDS011;25592;49.986;11.618;2022-09-09T02:23:39;5.10;;;0.95;;
39924;SDS011;25592;49.986;11.618;2022-09-09T02:26:27;3.58;;;1.17;;
39924;SDS011;25592;49.986;11.618;2022-09-09T02:29:14;4.25;;;1.10;;
39924;SDS011;25592;49.986;11.618;2022-09-09T02:32:05;2.08;;;0.90;;
39924;SDS011;25592;49.986;11.618;2022-09-09T02:34:53;2.78;;;1.20;;
39924;SDS011;25592;49.986;11.618;2022-09-09T02:37:44;2.75;;;1.10;;
39924;SDS011;25592;49.986;11.618;2022-09-09T02:40:30;2.67;;;1.05;;
39924;SDS011;25592;49.986;11.618;2022-09-09T02:43:16;2.25;;;1.05;;
39924;SDS011;25592;49.986;11.618;2022-09-09T02:52:16;2.42;;;1.20;;
39924;SDS011;25592;49.986;11.618;2022-09-09T02:55:10;4.03;;;1.38;;
39924;SDS011;25592;49.986;11.618;2022-09-09T02:58:01;4.85;;;1.40;;
39924;SDS011;25592;49.986;11.618;2022-09-09T03:00:50;1.88;;;0.93;;
39924;SDS011;25592;49.986;11.618;2022-09-09T03:03:35;3.88;;;1.23;;
39924;SDS011;25592;49.986;11.618;2022-09-09T03:06:21;2.25;;;1.05;;
39924;SDS011;25592;49.986;11.618;2022-09-09T03:09:06;2.92;;;1.52;;
39924;SDS011;25592;49.986;11.618;2022-09-09T03:11:54;2.88;;;1.38;;
39924;SDS011;25592;49.986;11.618;2022-09-09T03:14:40;4.10;;;1.85;;
39924;SDS011;25592;49.986;11.618;2022-09-09T03:17:26;3.53;;;1.30;;
39924;SDS011;25592;49.986;11.618;2022-09-09T03:20:12;2.97;;;1.30;;
39924;SDS011;25592;49.986;11.618;2022-09-09T03:22:59;5.43;;;1.45;;
39924;SDS011;25592;49.986;11.618;2022-09-09T03:25:51;2.40;;;1.25;;
39924;SDS011;25592;49.986;11.618;2022-09-09T03:28:37;2.70;;;1.30;;
39924;SDS011;25592;49.986;11.618;2022-09-09T03:31:22;2.95;;;1.38;;
39924;SDS011;25592;49.986;11.618;2022-09-09T03:34:08;2.13;;;1.30;;
39924;SDS011;25592;49.986;11.618;2022-09-09T03:36:53;7.90;;;1.20;;
39924;SDS011;25592;49.986;11.618;2022-09-09T03:39:38;3.03;;;1.40;;
39924;SDS011;25592;49.986;11.618;2022-09-09T03:42:24;4.07;;;1.42;;
39924;SDS011;25592;49.986;11.618;2022-09-09T03:45:09;3.80;;;1.40;;
39924;SDS011;25592;49.986;11.618;2022-09-09T03:47:55;3.47;;;1.35;;
39924;SDS011;25592;49.986;11.618;2022-09-09T03:50:45;3.00;;;1.30;;
39924;SDS011;25592;49.986;11.618;2022-09-09T03:53:31;4.05;;;1.15;;
39924;SDS011;25592;49.986;11.618;2022-09-09T03:56:18;4.45;;;1.48;;
39924;SDS011;25592;49.986;11.618;2022-09-09T03:59:03;3.33;;;1.40;;
39924;SDS011;25592;49.986;11.618;2022-09-09T04:01:49;4.88;;;1.42;;
39924;SDS011;25592;49.986;11.618;2022-09-09T04:04:34;3.50;;;1.40;;
39924;SDS011;25592;49.986;11.618;2022-09-09T04:07:20;4.35;;;1.70;;
39924;SDS011;25592;49.986;11.618;2022-09-09T04:10:06;3.67;;;1.52;;
39924;SDS011;25592;49.986;11.618;2022-09-09T04:12:53;2.15;;;1.13;;
39924;SDS011;25592;49.986;11.618;2022-09-09T04:15:38;4.07;;;1.52;;
39924;SDS011;25592;49.986;11.618;2022-09-09T04:18:24;2.97;;;1.38;;
39924;SDS011;25592;49.986;11.618;2022-09-09T04:21:10;6.25;;;1.58;;
39924;SDS011;25592;49.986;11.618;2022-09-09T04:23:56;4.63;;;1.67;;
39924;SDS011;25592;49.986;11.618;2022-09-09T04:26:42;3.75;;;1.67;;
39924;SDS011;25592;49.986;11.618;2022-09-09T04:29:27;7.85;;;1.58;;
39924;SDS011;25592;49.986;11.618;2022-09-09T04:32:13;4.43;;;1.88;;
39924;SDS011;25592;49.986;11.618;2022-09-09T04:34:58;4.97;;;1.50;;
39924;SDS011;25592;49.986;11.618;2022-09-09T04:37:43;3.25;;;1.40;;
39924;SDS011;25592;49.986;11.618;2022-09-09T04:40:30;4.47;;;1.50;;
39924;SDS011;25592;49.986;11.618;2022-09-09T04:43:15;3.25;;;1.52;;
39924;SDS011;25592;49.986;11.618;2022-09-09T04:46:01;3.03;;;1.38;;
39924;SDS011;25592;49.986;11.618;2022-09-09T04:48:46;4.50;;;1.83;;
39924;SDS011;25592;49.986;11.618;2022-09-09T04:51:34;3.97;;;1.48;;
39924;SDS011;25592;49.986;11.618;2022-09-09T04:54:19;4.20;;;1.50;;
39924;SDS011;25592;49.986;11.618;2022-09-09T04:57:05;2.90;;;1.50;;
39924;SDS011;25592;49.986;11.618;2022-09-09T04:59:50;5.65;;;1.60;;
39924;SDS011;25592;49.986;11.618;2022-09-09T05:02:39;6.50;;;1.92;;
39924;SDS011;25592;49.986;11.618;2022-09-09T05:05:26;4.60;;;1.52;;
39924;SDS011;25592;49.986;11.618;2022-09-09T05:08:11;3.05;;;1.80;;
39924;SDS011;25592;49.986;11.618;2022-09-09T05:10:56;3.83;;;1.40;;
39924;SDS011;25592;49.986;11.618;2022-09-09T05:13:44;4.10;;;1.90;;
39924;SDS011;25592;49.986;11.618;2022-09-09T05:16:30;6.28;;;1.65;;
39924;SDS011;25592;49.986;11.618;2022-09-09T05:19:16;4.07;;;2.35;;
39924;SDS011;25592;49.986;11.618;2022-09-09T05:22:03;5.78;;;1.88;;
39924;SDS011;25592;49.986;11.618;2022-09-09T05:24:49;4.18;;;1.83;;
39924;SDS011;25592;49.986;11.618;2022-09-09T05:27:35;3.85;;;1.77;;
39924;SDS011;25592;49.986;11.618;2022-09-09T05:30:21;3.58;;;1.88;;
39924;SDS011;25592;49.986;11.618;2022-09-09T05:33:09;5.97;;;1.83;;
39924;SDS011;25592;49.986;11.618;2022-09-09T05:35:58;3.47;;;1.73;;
39924;SDS011;25592;49.986;11.618;2022-09-09T05:38:46;4.47;;;2.20;;
39924;SDS011;25592;49.986;11.618;2022-09-09T05:41:32;6.22;;;2.30;;
39924;SDS011;25592;49.986;11.618;2022-09-09T05:44:17;3.70;;;1.58;;
39924;SDS011;25592;49.986;11.618;2022-09-09T05:47:03;4.40;;;1.80;;
39924;SDS011;25592;49.986;11.618;2022-09-09T05:49:49;5.65;;;2.72;;
39924;SDS011;25592;49.986;11.618;2022-09-09T05:52:34;7.60;;;1.95;;
39924;SDS011;25592;49.986;11.618;2022-09-09T05:55:21;6.85;;;2.30;;
39924;SDS011;25592;49.986;11.618;2022-09-09T05:58:06;6.53;;;2.17;;
39924;SDS011;25592;49.986;11.618;2022-09-09T06:00:52;4.82;;;2.47;;
39924;SDS011;25592;49.986;11.618;2022-09-09T06:03:39;5.13;;;2.15;;
39924;SDS011;25592;49.986;11.618;2022-09-09T06:06:27;5.25;;;2.05;;
39924;SDS011;25592;49.986;11.618;2022-09-09T06:09:16;4.25;;;2.55;;
39924;SDS011;25592;49.986;11.618;2022-09-09T06:12:02;5.22;;;2.53;;
39924;SDS011;25592;49.986;11.618;2022-09-09T06:14:47;5.38;;;2.20;;
39924;SDS011;25592;49.986;11.618;2022-09-09T06:17:33;3.45;;;1.75;;
39924;SDS011;25592;49.986;11.618;2022-09-09T06:20:18;6.45;;;2.13;;
39924;SDS011;25592;49.986;11.618;2022-09-09T06:23:04;4.68;;;2.17;;
39924;SDS011;25592;49.986;11.618;2022-09-09T06:25:49;4.32;;;2.50;;
39924;SDS011;25592;49.986;11.618;2022-09-09T06:28:36;4.32;;;2.47;;
39924;SDS011;25592;49.986;11.618;2022-09-09T06:31:22;5.82;;;2.22;;
39924;SDS011;25592;49.986;11.618;2022-09-09T06:34:13;4.63;;;2.47;;
39924;SDS011;25592;49.986;11.618;2022-09-09T06:36:59;6.22;;;2.60;;
39924;SDS011;25592;49.986;11.618;2022-09-09T06:39:45;6.50;;;2.47;;
39924;SDS011;25592;49.986;11.618;2022-09-09T06:42:30;9.02;;;3.15;;
39924;SDS011;25592;49.986;11.618;2022-09-09T06:45:16;5.47;;;2.33;;
39924;SDS011;25592;49.986;11.618;2022-09-09T06:48:02;5.55;;;2.33;;
39924;SDS011;25592;49.986;11.618;2022-09-09T06:50:47;5.43;;;2.30;;
39924;SDS011;25592;49.986;11.618;2022-09-09T06:53:34;6.32;;;2.38;;
39924;SDS011;25592;49.986;11.618;2022-09-09T06:59:19;5.63;;;2.30;;
39924;SDS011;25592;49.986;11.618;2022-09-09T07:02:05;4.80;;;2.60;;
39924;SDS011;25592;49.986;11.618;2022-09-09T07:04:52;6.75;;;3.25;;
39924;SDS011;25592;49.986;11.618;2022-09-09T07:07:37;5.05;;;3.10;;
39924;SDS011;25592;49.986;11.618;2022-09-09T07:10:22;5.00;;;2.83;;
39924;SDS011;25592;49.986;11.618;2022-09-09T07:13:08;7.10;;;2.55;;
39924;SDS011;25592;49.986;11.618;2022-09-09T07:15:54;4.82;;;2.58;;
39924;SDS011;25592;49.986;11.618;2022-09-09T07:18:40;5.88;;;2.67;;
39924;SDS011;25592;49.986;11.618;2022-09-09T07:21:26;5.78;;;3.05;;
39924;SDS011;25592;49.986;11.618;2022-09-09T07:24:13;5.78;;;2.42;;
39924;SDS011;25592;49.986;11.618;2022-09-09T07:26:59;5.70;;;2.75;;
39924;SDS011;25592;49.986;11.618;2022-09-09T07:29:44;6.15;;;2.42;;
39924;SDS011;25592;49.986;11.618;2022-09-09T07:32:30;5.75;;;2.67;;
39924;SDS011;25592;49.986;11.618;2022-09-09T07:35:15;3.95;;;2.22;;
39924;SDS011;25592;49.986;11.618;2022-09-09T07:38:00;4.13;;;2.25;;
39924;SDS011;25592;49.986;11.618;2022-09-09T07:40:46;4.00;;;2.13;;
39924;SDS011;25592;49.986;11.618;2022-09-09T07:43:31;4.47;;;2.20;;
39924;SDS011;25592;49.986;11.618;2022-09-09T07:46:18;5.18;;;2.28;;
39924;SDS011;25592;49.986;11.618;2022-09-09T07:49:04;3.35;;;2.00;;
39924;SDS011;25592;49.986;11.618;2022-09-09T07:51:50;11.10;;;2.28;;
39924;SDS011;25592;49.986;11.618;2022-09-09T07:54:35;5.07;;;2.55;;
39924;SDS011;25592;49.986;11.618;2022-09-09T07:57:21;8.35;;;2.45;;
39924;SDS011;25592;49.986;11.618;2022-09-09T08:00:06;6.35;;;2.10;;
39924;SDS011;25592;49.986;11.618;2022-09-09T08:02:52;4.70;;;2.25;;
39924;SDS011;25592;49.986;11.618;2022-09-09T08:05:39;4.60;;;2.08;;
39924;SDS011;25592;49.986;11.618;2022-09-09T08:08:24;9.40;;;2.83;;
39924;SDS011;25592;49.986;11.618;2022-09-09T08:11:10;5.25;;;2.10;;
39924;SDS011;25592;49.986;11.618;2022-09-09T08:13:57;3.78;;;2.03;;
39924;SDS011;25592;49.986;11.618;2022-09-09T08:16:47;5.45;;;2.22;;
39924;SDS011;25592;49.986;11.618;2022-09-09T08:19:33;8.32;;;1.85;;
39924;SDS011;25592;49.986;11.618;2022-09-09T08:22:20;5.85;;;1.95;;
39924;SDS011;25592;49.986;11.618;2022-09-09T08:25:06;6.28;;;2.00;;
39924;SDS011;25592;49.986;11.618;2022-09-09T08:27:53;5.95;;;2.22;;
39924;SDS011;25592;49.986;11.618;2022-09-09T08:30:38;3.90;;;2.10;;
39924;SDS011;25592;49.986;11.618;2022-09-09T08:33:24;4.50;;;2.13;;
39924;SDS011;25592;49.986;11.618;2022-09-09T08:36:10;5.40;;;2.20;;
39924;SDS011;25592;49.986;11.618;2022-09-09T08:38:58;3.30;;;1.55;;
39924;SDS011;25592;49.986;11.618;2022-09-09T08:48:23;3.60;;;2.20;;
39924;SDS011;25592;49.986;11.618;2022-09-09T08:51:31;7.15;;;2.05;;
39924;SDS011;25592;49.986;11.618;2022-09-09T08:54:18;5.35;;;1.60;;
39924;SDS011;25592;49.986;11.618;2022-09-09T08:57:25;4.28;;;2.78;;
39924;SDS011;25592;49.986;11.618;2022-09-09T09:00:12;3.80;;;1.77;;
39924;SDS011;25592;49.986;11.618;2022-09-09T09:06:26;8.27;;;1.70;;
39924;SDS011;25592;49.986;11.618;2022-09-09T09:09:39;4.55;;;1.92;;
39924;SDS011;25592;49.986;11.618;2022-09-09T09:12:38;3.78;;;1.58;;
39924;SDS011;25592;49.986;11.618;2022-09-09T09:18:21;4.57;;;1.77;;
39924;SDS011;25592;49.986;11.618;2022-09-09T09:21:14;4.35;;;1.75;;
39924;SDS011;25592;49.986;11.618;2022-09-09T09:27:12;2.95;;;1.38;;
39924;SDS011;25592;49.986;11.618;2022-09-09T09:30:00;3.75;;;1.60;;
39924;SDS011;25592;49.986;11.618;2022-09-09T09:33:14;4.50;;;1.40;;
39924;SDS011;25592;49.986;11.618;2022-09-09T09:36:08;3.55;;;0.90;;
39924;SDS011;25592;49.986;11.618;2022-09-09T09:38:57;4.00;;;1.00;;
39924;SDS011;25592;49.986;11.618;2022-09-09T09:42:15;4.05;;;0.80;;
39924;SDS011;25592;49.986;11.618;2022-09-09T09:45:18;3.40;;;0.98;;
39924;SDS011;25592;49.986;11.618;2022-09-09T09:48:14;4.10;;;0.85;;
39924;SDS011;25592;49.986;11.618;2022-09-09T09:53:47;7.28;;;1.17;;
39924;SDS011;25592;49.986;11.618;2022-09-09T09:56:34;6.07;;;1.00;;
39924;SDS011;25592;49.986;11.618;2022-09-09T09:59:41;3.35;;;0.98;;
39924;SDS011;25592;49.986;11.618;2022-09-09T10:02:25;5.38;;;1.80;;
39924;SDS011;25592;49.986;11.618;2022-09-09T10:05:13;3.22;;;0.98;;
39924;SDS011;25592;49.986;11.618;2022-09-09T10:08:11;2.95;;;0.70;;
39924;SDS011;25592;49.986;11.618;2022-09-09T10:14:20;3.70;;;0.95;;
39924;SDS011;25592;49.986;11.618;2022-09-09T10:17:21;4.18;;;0.95;;
39924;SDS011;25592;49.986;11.618;2022-09-09T10:21:15;3.10;;;0.88;;
39924;SDS011;25592;49.986;11.618;2022-09-09T10:24:07;5.47;;;0.98;;
39924;SDS011;25592;49.986;11.618;2022-09-09T10:30:39;3.88;;;0.88;;
39924;SDS011;25592;49.986;11.618;2022-09-09T10:33:50;2.70;;;0.70;;
39924;SDS011;25592;49.986;11.618;2022-09-09T10:36:44;4.65;;;1.05;;
39924;SDS011;25592;49.986;11.618;2022-09-09T10:39:35;1.77;;;0.65;;
39924;SDS011;25592;49.986;11.618;2022-09-09T10:42:28;1.60;;;0.68;;
39924;SDS011;25592;49.986;11.618;2022-09-09T10:45:17;3.53;;;1.20;;
39924;SDS011;25592;49.986;11.618;2022-09-09T10:51:27;3.95;;;1.10;;
39924;SDS011;25592;49.986;11.618;2022-09-09T10:57:47;4.40;;;1.10;;
39924;SDS011;25592;49.986;11.618;2022-09-09T11:00:46;2.38;;;0.80;;
39924;SDS011;25592;49.986;11.618;2022-09-09T11:03:41;3.45;;;0.88;;
39924;SDS011;25592;49.986;11.618;2022-09-09T11:06:32;2.72;;;0.70;;
39924;SDS011;25592;49.986;11.618;2022-09-09T11:09:25;1.92;;;0.63;;
39924;SDS011;25592;49.986;11.618;2022-09-09T11:12:15;2.28;;;0.70;;
39924;SDS011;25592;49.986;11.618;2022-09-09T11:15:06;2.13;;;0.77;;
39924;SDS011;25592;49.986;11.618;2022-09-09T11:17:59;5.13;;;0.90;;
39924;SDS011;25592;49.986;11.618;2022-09-09T11:20:49;4.20;;;0.90;;
39924;SDS011;25592;49.986;11.618;2022-09-09T11:23:40;2.92;;;1.33;;
39924;SDS011;25592;49.986;11.618;2022-09-09T11:26:36;4.40;;;0.70;;
39924;SDS011;25592;49.986;11.618;2022-09-09T11:29:29;5.05;;;1.50;;
39924;SDS011;25592;49.986;11.618;2022-09-09T11:32:45;3.88;;;1.00;;
39924;SDS011;25592;49.986;11.618;2022-09-09T11:36:01;2.85;;;0.90;;
39924;SDS011;25592;49.986;11.618;2022-09-09T11:42:19;4.18;;;1.10;;
39924;SDS011;25592;49.986;11.618;2022-09-09T11:45:08;2.65;;;0.93;;
39924;SDS011;25592;49.986;11.618;2022-09-09T11:48:26;4.97;;;1.25;;
39924;SDS011;25592;49.986;11.618;2022-09-09T11:57:20;1.98;;;0.80;;
39924;SDS011;25592;49.986;11.618;2022-09-09T12:00:33;1.92;;;0.90;;
39924;SDS011;25592;49.986;11.618;2022-09-09T12:06:45;2.60;;;0.70;;
39924;SDS011;25592;49.986;11.618;2022-09-09T12:12:37;7.00;;;1.25;;
39924;SDS011;25592;49.986;11.618;2022-09-09T12:15:28;4.38;;;0.93;;
39924;SDS011;25592;49.986;11.618;2022-09-09T12:18:14;2.75;;;0.73;;
39924;SDS011;25592;49.986;11.618;2022-09-09T12:21:10;2.17;;;0.80;;
39924;SDS011;25592;49.986;11.618;2022-09-09T12:24:10;3.55;;;0.90;;
39924;SDS011;25592;49.986;11.618;2022-09-09T12:30:12;3.10;;;0.93;;
39924;SDS011;25592;49.986;11.618;2022-09-09T12:33:01;3.10;;;0.80;;
39924;SDS011;25592;49.986;11.618;2022-09-09T12:35:57;1.77;;;0.70;;
39924;SDS011;25592;49.986;11.618;2022-09-09T12:38:45;3.50;;;0.80;;
39924;SDS011;25592;49.986;11.618;2022-09-09T12:41:31;3.97;;;1.00;;
39924;SDS011;25592;49.986;11.618;2022-09-09T12:44:16;2.55;;;0.82;;
39924;SDS011;25592;49.986;11.618;2022-09-09T12:47:02;2.13;;;0.80;;
39924;SDS011;25592;49.986;11.618;2022-09-09T12:49:49;3.90;;;0.80;;
39924;SDS011;25592;49.986;11.618;2022-09-09T12:52:35;2.92;;;0.70;;
39924;SDS011;25592;49.986;11.618;2022-09-09T12:55:24;1.95;;;0.73;;
39924;SDS011;25592;49.986;11.618;2022-09-09T12:58:14;2.75;;;1.05;;
39924;SDS011;25592;49.986;11.618;2022-09-09T13:01:03;1.33;;;0.60;;
39924;SDS011;25592;49.986;11.618;2022-09-09T13:03:49;2.08;;;0.68;;
39924;SDS011;25592;49.986;11.618;2022-09-09T13:06:35;3.30;;;0.88;;
39924;SDS011;25592;49.986;11.618;2022-09-09T13:09:21;2.83;;;0.70;;
39924;SDS011;25592;49.986;11.618;2022-09-09T13:12:07;2.88;;;0.80;;
39924;SDS011;25592;49.986;11.618;2022-09-09T13:14:59;6.43;;;0.90;;
39924;SDS011;25592;49.986;11.618;2022-09-09T13:17:51;2.33;;;0.80;;
39924;SDS011;25592;49.986;11.618;2022-09-09T13:20:38;5.95;;;0.88;;
39924;SDS011;25592;49.986;11.618;2022-09-09T13:23:27;3.42;;;0.82;;
39924;SDS011;25592;49.986;11.618;2022-09-09T13:26:22;2.40;;;0.90;;
39924;SDS011;25592;49.986;11.618;2022-09-09T13:29:17;4.35;;;1.05;;
39924;SDS011;25592;49.986;11.618;2022-09-09T13:32:12;3.03;;;1.00;;
39924;SDS011;25592;49.986;11.618;2022-09-09T13:35:01;4.13;;;0.90;;
39924;SDS011;25592;49.986;11.618;2022-09-09T13:37:47;3.45;;;0.80;;
39924;SDS011;25592;49.986;11.618;2022-09-09T13:40:32;3.45;;;0.80;;
39924;SDS011;25592;49.986;11.618;2022-09-09T13:43:21;3.10;;;0.80;;
39924;SDS011;25592;49.986;11.618;2022-09-09T13:52:11;4.55;;;0.93;;
39924;SDS011;25592;49.986;11.618;2022-09-09T13:55:01;3.40;;;1.33;;
39924;SDS011;25592;49.986;11.618;2022-09-09T13:57:50;3.67;;;0.77;;
39924;SDS011;25592;49.986;11.618;2022-09-09T14:00:47;4.85;;;0.85;;
39924;SDS011;25592;49.986;11.618;2022-09-09T14:03:34;2.38;;;0.80;;
39924;SDS011;25592;49.986;11.618;2022-09-09T14:06:20;4.78;;;0.70;;
39924;SDS011;25592;49.986;11.618;2022-09-09T14:09:13;5.95;;;0.68;;
39924;SDS011;25592;49.986;11.618;2022-09-09T14:12:00;2.78;;;0.70;;
39924;SDS011;25592;49.986;11.618;2022-09-09T14:14:46;5.57;;;0.82;;
39924;SDS011;25592;49.986;11.618;2022-09-09T14:17:32;3.78;;;0.77;;
39924;SDS011;25592;49.986;11.618;2022-09-09T14:20:18;2.58;;;1.02;;
39924;SDS011;25592;49.986;11.618;2022-09-09T14:23:04;4.18;;;1.05;;
39924;SDS011;25592;49.986;11.618;2022-09-09T14:25:49;3.05;;;0.80;;
39924;SDS011;25592;49.986;11.618;2022-09-09T14:28:35;2.72;;;0.57;;
39924;SDS011;25592;49.986;11.618;2022-09-09T14:31:41;4.95;;;1.23;;
39924;SDS011;25592;49.986;11.618;2022-09-09T14:34:26;4.57;;;0.70;;
39924;SDS011;25592;49.986;11.618;2022-09-09T14:37:12;2.33;;;0.70;;
39924;SDS011;25592;49.986;11.618;2022-09-09T14:39:58;2.22;;;0.57;;
39924;SDS011;25592;49.986;11.618;2022-09-09T14:42:43;3.53;;;0.73;;
39924;SDS011;25592;49.986;11.618;2022-09-09T14:45:29;0.75;;;0.38;;
39924;SDS011;25592;49.986;11.618;2022-09-09T14:48:15;2.63;;;0.63;;
39924;SDS011;25592;49.986;11.618;2022-09-09T14:51:11;3.95;;;0.70;;
39924;SDS011;25592;49.986;11.618;2022-09-09T14:54:00;2.15;;;0.77;;
39924;SDS011;25592;49.986;11.618;2022-09-09T14:56:46;1.35;;;0.50;;
39924;SDS011;25592;49.986;11.618;2022-09-09T14:59:32;2.90;;;1.08;;
39924;SDS011;25592;49.986;11.618;2022-09-09T15:02:18;2.40;;;0.77;;
39924;SDS011;25592;49.986;11.618;2022-09-09T15:05:04;1.55;;;0.70;;
39924;SDS011;25592;49.986;11.618;2022-09-09T15:07:53;5.60;;;0.80;;
39924;SDS011;25592;49.986;11.618;2022-09-09T15:10:38;1.83;;;0.70;;
39924;SDS011;25592;49.986;11.618;2022-09-09T15:13:24;2.40;;;0.70;;
39924;SDS011;25592;49.986;11.618;2022-09-09T15:16:12;3.55;;;0.73;;
39924;SDS011;25592;49.986;11.618;2022-09-09T15:18:59;2.42;;;0.70;;
39924;SDS011;25592;49.986;11.618;2022-09-09T15:21:46;1.75;;;0.70;;
39924;SDS011;25592;49.986;11.618;2022-09-09T15:24:32;4.72;;;1.00;;
39924;SDS011;25592;49.986;11.618;2022-09-09T15:27:17;2.80;;;0.73;;
39924;SDS011;25592;49.986;11.618;2022-09-09T15:30:03;2.90;;;0.70;;
39924;SDS011;25592;49.986;11.618;2022-09-09T15:32:48;3.70;;;0.93;;
39924;SDS011;25592;49.986;11.618;2022-09-09T15:35:34;4.22;;;0.90;;
39924;SDS011;25592;49.986;11.618;2022-09-09T15:38:19;2.65;;;0.82;;
39924;SDS011;25592;49.986;11.618;2022-09-09T15:41:04;2.20;;;0.63;;
39924;SDS011;25592;49.986;11.618;2022-09-09T15:43:50;2.58;;;0.85;;
39924;SDS011;25592;49.986;11.618;2022-09-09T15:46:41;5.43;;;1.20;;
39924;SDS011;25592;49.986;11.618;2022-09-09T15:49:28;2.33;;;0.90;;
39924;SDS011;25592;49.986;11.618;2022-09-09T15:52:13;1.50;;;0.82;;
39924;SDS011;25592;49.986;11.618;2022-09-09T15:54:59;4.05;;;0.80;;
39924;SDS011;25592;49.986;11.618;2022-09-09T15:57:46;7.75;;;1.10;;
39924;SDS011;25592;49.986;11.618;2022-09-09T16:00:34;5.43;;;0.90;;
39924;SDS011;25592;49.986;11.618;2022-09-09T16:03:19;3.88;;;1.00;;
39924;SDS011;25592;49.986;11.618;2022-09-09T16:06:05;3.25;;;0.90;;
39924;SDS011;25592;49.986;11.618;2022-09-09T16:08:52;1.85;;;0.68;;
39924;SDS011;25592;49.986;11.618;2022-09-09T16:11:39;4.45;;;0.98;;
39924;SDS011;25592;49.986;11.618;2022-09-09T16:14:24;3.65;;;0.90;;
39924;SDS011;25592;49.986;11.618;2022-09-09T16:17:10;2.03;;;0.68;;
39924;SDS011;25592;49.986;11.618;2022-09-09T16:19:56;4.38;;;0.80;;
39924;SDS011;25592;49.986;11.618;2022-09-09T16:22:42;3.92;;;0.85;;
39924;SDS011;25592;49.986;11.618;2022-09-09T16:25:28;1.98;;;0.80;;
39924;SDS011;25592;49.986;11.618;2022-09-09T16:28:13;3.53;;;1.00;;
39924;SDS011;25592;49.986;11.618;2022-09-09T16:31:03;2.05;;;0.60;;
39924;SDS011;25592;49.986;11.618;2022-09-09T16:33:49;2.88;;;0.80;;
39924;SDS011;25592;49.986;11.618;2022-09-09T16:36:37;2.97;;;0.90;;
39924;SDS011;25592;49.986;11.618;2022-09-09T16:39:24;6.03;;;1.13;;
39924;SDS011;25592;49.986;11.618;2022-09-09T16:42:10;2.28;;;0.90;;
39924;SDS011;25592;49.986;11.618;2022-09-09T16:44:55;2.67;;;0.95;;
39924;SDS011;25592;49.986;11.618;2022-09-09T16:47:40;1.88;;;0.77;;
39924;SDS011;25592;49.986;11.618;2022-09-09T16:50:26;1.92;;;0.70;;
39924;SDS011;25592;49.986;11.618;2022-09-09T16:53:11;2.97;;;0.80;;
39924;SDS011;25592;49.986;11.618;2022-09-09T16:55:58;5.32;;;1.00;;
39924;SDS011;25592;49.986;11.618;2022-09-09T16:58:50;7.05;;;1.33;;
39924;SDS011;25592;49.986;11.618;2022-09-09T17:01:37;3.25;;;0.90;;
39924;SDS011;25592;49.986;11.618;2022-09-09T17:04:25;3.92;;;1.10;;
39924;SDS011;25592;49.986;11.618;2022-09-09T17:07:12;4.45;;;1.15;;
39924;SDS011;25592;49.986;11.618;2022-09-09T17:09:57;2.83;;;0.85;;
39924;SDS011;25592;49.986;11.618;2022-09-09T17:12:43;4.38;;;1.05;;
39924;SDS011;25592;49.986;11.618;2022-09-09T17:15:28;2.83;;;0.98;;
39924;SDS011;25592;49.986;11.618;2022-09-09T17:18:15;3.25;;;1.10;;
39924;SDS011;25592;49.986;11.618;2022-09-09T17:21:09;3.97;;;1.00;;
39924;SDS011;25592;49.986;11.618;2022-09-09T17:23:57;3.78;;;1.00;;
39924;SDS011;25592;49.986;11.618;2022-09-09T17:26:43;3.70;;;1.10;;
39924;SDS011;25592;49.986;11.618;2022-09-09T17:29:30;3.00;;;1.33;;
39924;SDS011;25592;49.986;11.618;2022-09-09T17:32:15;3.80;;;1.45;;
39924;SDS011;25592;49.986;11.618;2022-09-09T17:35:00;2.47;;;1.00;;
39924;SDS011;25592;49.986;11.618;2022-09-09T17:37:46;3.05;;;1.00;;
39924;SDS011;25592;49.986;11.618;2022-09-09T17:40:31;3.45;;;0.98;;
39924;SDS011;25592;49.986;11.618;2022-09-09T17:43:16;5.53;;;0.70;;
39924;SDS011;25592;49.986;11.618;2022-09-09T17:46:12;2.78;;;0.85;;
39924;SDS011;25592;49.986;11.618;2022-09-09T17:51:51;1.73;;;0.68;;
39924;SDS011;25592;49.986;11.618;2022-09-09T17:54:37;3.90;;;0.98;;
39924;SDS011;25592;49.986;11.618;2022-09-09T17:57:22;7.68;;;0.90;;
39924;SDS011;25592;49.986;11.618;2022-09-09T18:00:08;4.78;;;0.73;;
39924;SDS011;25592;49.986;11.618;2022-09-09T18:02:54;3.17;;;1.17;;
39924;SDS011;25592;49.986;11.618;2022-09-09T18:05:39;3.40;;;1.08;;
39924;SDS011;25592;49.986;11.618;2022-09-09T18:08:25;1.55;;;0.80;;
39924;SDS011;25592;49.986;11.618;2022-09-09T18:11:10;4.43;;;0.90;;
39924;SDS011;25592;49.986;11.618;2022-09-09T18:13:57;6.47;;;1.20;;
39924;SDS011;25592;49.986;11.618;2022-09-09T18:16:45;1.92;;;0.77;;
39924;SDS011;25592;49.986;11.618;2022-09-09T18:19:31;1.65;;;0.80;;
39924;SDS011;25592;49.986;11.618;2022-09-09T18:22:17;3.95;;;0.90;;
39924;SDS011;25592;49.986;11.618;2022-09-09T18:25:03;3.83;;;1.60;;
39924;SDS011;25592;49.986;11.618;2022-09-09T18:27:49;6.72;;;2.33;;
39924;SDS011;25592;49.986;11.618;2022-09-09T18:30:38;2.72;;;1.50;;
39924;SDS011;25592;49.986;11.618;2022-09-09T18:33:24;3.72;;;1.60;;
39924;SDS011;25592;49.986;11.618;2022-09-09T18:36:10;4.65;;;1.58;;